Time;durP1;ratioP1;P1;durP2;ratioP2;P2;SDS_P1;SDS_P2;PMS_P1;PMS_P2;Temp;Humidity;BMP_temperature;BMP_pressure;BME280_temperature;BME280_humidity;BME280_pressure;Samples;Min_cycle;Max_cycle;Signal;HPM_P1;HPM_P2
2022/04/28 00:04:35;;;;;;;24.40;16.20;;;;;;;5.78;66.51;99415.34;218325;1274;3238774;-73
2022/04/28 00:09:38;;;;;;;26.10;17.00;;;;;;;5.69;66.90;99416.20;220471;1274;22625;-72
2022/04/28 00:20:12;;;;;;;27.00;17.60;;;;;;;5.47;67.07;99422.63;220348;1274;24230;-73
2022/04/28 00:25:14;;;;;;;25.20;16.80;;;;;;;5.33;67.55;99424.20;220488;1274;22541;-72
2022/04/28 00:30:34;;;;;;;23.60;16.40;;;;;;;5.20;67.64;99422.51;220463;1273;25482;-73
2022/04/28 00:35:59;;;;;;;25.20;16.40;;;;;;;5.08;67.91;99428.55;220455;1274;22533;-72
2022/04/28 00:41:02;;;;;;;28.30;16.50;;;;;;;4.98;68.17;99430.15;220582;1274;23035;-72
2022/04/28 00:46:05;;;;;;;23.50;16.90;;;;;;;4.89;68.36;99433.48;220632;1274;22646;-72
2022/04/28 00:51:12;;;;;;;24.00;16.30;;;;;;;4.82;68.65;99433.08;220601;1274;22546;-72
2022/04/28 00:56:16;;;;;;;26.50;16.70;;;;;;;4.76;68.96;99425.68;220799;1274;22586;-73
2022/04/28 01:01:24;;;;;;;22.50;16.00;;;;;;;4.73;69.15;99428.48;220900;1274;22629;-72
2022/04/28 01:06:36;;;;;;;26.30;15.60;;;;;;;4.70;69.22;99426.98;221005;1273;25347;-72
2022/04/28 01:11:40;;;;;;;27.20;17.40;;;;;;;4.64;69.44;99423.30;220377;1274;22912;-72
2022/04/28 01:16:58;;;;;;;24.60;16.10;;;;;;;4.55;69.68;99418.76;220426;1274;24161;-72
2022/04/28 01:22:03;;;;;;;24.20;16.80;;;;;;;4.48;69.73;99422.39;220777;1273;24326;-72
2022/04/28 01:27:23;;;;;;;22.40;16.00;;;;;;;4.42;70.01;99415.85;220535;1274;24320;-72
2022/04/28 01:32:26;;;;;;;29.30;18.00;;;;;;;4.37;70.21;99418.42;220623;1273;24243;-72
2022/04/28 01:37:31;;;;;;;25.30;17.10;;;;;;;4.30;70.22;99415.66;220679;1274;24243;-73
2022/04/28 01:42:40;;;;;;;30.10;20.40;;;;;;;4.20;70.30;99413.91;220650;1273;23408;-72
2022/04/28 01:47:43;;;;;;;32.80;21.80;;;;;;;4.08;70.38;99414.80;220668;1274;24347;-72
2022/04/28 01:58:39;;;;;;;35.60;20.70;;;;;;;3.83;70.80;99423.54;220404;1273;24207;-71
2022/04/28 02:03:50;;;;;;;32.00;20.40;;;;;;;3.72;70.92;99426.52;221184;1274;25423;-71
2022/04/28 02:08:53;;;;;;;25.10;16.80;;;;;;;3.61;71.19;99423.48;221125;1275;22557;-71
2022/04/28 02:13:58;;;;;;;26.00;16.20;;;;;;;3.54;71.56;99426.00;221201;1273;25533;-71
2022/04/28 02:19:24;;;;;;;25.10;17.30;;;;;;;3.50;72.07;99426.16;221010;1274;22665;-71
2022/04/28 02:24:26;;;;;;;30.40;19.00;;;;;;;3.51;72.10;99424.83;221053;1274;24210;-72
2022/04/28 02:29:32;;;;;;;25.40;16.40;;;;;;;3.52;72.42;99422.77;220740;1273;22578;-72
2022/04/28 02:34:35;;;;;;;26.50;16.80;;;;;;;3.55;72.59;99421.00;220760;1273;22601;-72
2022/04/28 02:39:38;;;;;;;27.90;17.40;;;;;;;3.58;72.67;99418.27;221093;1274;22565;-72
2022/04/28 02:44:44;;;;;;;27.90;18.60;;;;;;;3.62;72.84;99419.33;221110;1274;22560;-71
2022/04/28 02:49:49;;;;;;;30.10;18.80;;;;;;;3.62;72.56;99421.80;220678;1273;25330;-71
2022/04/28 02:54:54;;;;;;;27.10;17.20;;;;;;;3.54;72.59;99425.70;220617;1274;24300;-71
2022/04/28 02:59:57;;;;;;;26.80;17.90;;;;;;;3.47;72.65;99425.00;220810;1273;22545;-72
2022/04/28 03:05:03;;;;;;;26.10;17.70;;;;;;;3.41;72.71;99425.73;221586;1274;24218;-71
2022/04/28 03:15:27;;;;;;;32.80;20.90;;;;;;;3.32;73.18;99429.48;220502;1276;25375;-71
2022/04/28 03:20:34;;;;;;;36.60;23.60;;;;;;;3.20;73.13;99430.70;220755;1276;22581;-71
2022/04/28 03:25:39;;;;;;;44.00;24.30;;;;;;;3.05;73.24;99443.92;221438;1273;22783;-72
2022/04/28 03:30:46;;;;;;;34.80;22.20;;;;;;;2.88;73.47;99444.95;221292;1273;24296;-73
2022/04/28 03:36:01;;;;;;;32.00;21.20;;;;;;;2.71;73.79;99445.26;220981;1273;22534;-72
2022/04/28 03:41:04;;;;;;;29.60;21.00;;;;;;;2.56;73.99;99445.72;221207;1273;24221;-70
2022/04/28 03:46:07;;;;;;;38.60;21.60;;;;;;;2.45;74.09;99446.80;221257;1273;22583;-72
2022/04/28 03:51:11;;;;;;;36.50;21.90;;;;;;;2.36;74.65;99455.79;221225;1274;25254;-72
2022/04/28 03:56:23;;;;;;;28.00;18.40;;;;;;;2.30;74.74;99462.59;221079;1274;24826;-72
2022/04/28 04:01:26;;;;;;;28.50;18.10;;;;;;;2.30;75.06;99467.35;221209;1273;24229;-72
2022/04/28 04:06:56;;;;;;;26.30;18.20;;;;;;;2.33;75.12;99469.45;221092;1274;22733;-72
2022/04/28 04:12:18;;;;;;;27.40;17.90;;;;;;;2.41;75.35;99469.02;221177;1274;22546;-71
2022/04/28 04:18:06;;;;;;;26.50;16.90;;;;;;;2.52;75.48;99472.67;221025;1274;25455;-72
2022/04/28 04:23:16;;;;;;;26.40;16.80;;;;;;;2.66;75.61;99481.59;221232;1274;22553;-72
2022/04/28 04:28:22;;;;;;;29.80;17.60;;;;;;;2.81;75.65;99478.63;221142;1274;22587;-72
2022/04/28 04:33:44;;;;;;;28.70;17.60;;;;;;;2.99;75.80;99474.16;220983;1274;23121;-72
2022/04/28 04:38:46;;;;;;;26.50;18.30;;;;;;;3.18;75.83;99478.13;220896;1274;24252;-73
2022/04/28 04:43:51;;;;;;;27.30;17.80;;;;;;;3.35;75.42;99479.48;221257;1274;25359;-73
2022/04/28 04:48:55;;;;;;;30.40;19.00;;;;;;;3.57;75.76;99481.92;220930;1273;22710;-72
2022/04/28 04:54:09;;;;;;;26.70;18.10;;;;;;;3.83;75.68;99485.94;221029;1274;25444;-72
2022/04/28 04:59:14;;;;;;;27.10;17.90;;;;;;;4.09;75.53;99490.71;220910;1274;25250;-72
2022/04/28 05:04:22;;;;;;;25.40;17.60;;;;;;;4.34;75.38;99487.91;220936;1274;26381;-73
2022/04/28 05:09:43;;;;;;;25.80;17.90;;;;;;;4.61;75.32;99488.80;221190;1273;22583;-72
2022/04/28 05:15:06;;;;;;;;;;;;;;;;;;;;;
2022/04/28 05:20:16;;;;;;;26.30;18.20;;;;;;;5.10;75.06;99500.23;221134;1274;22587;-72
2022/04/28 05:25:37;;;;;;;24.00;17.20;;;;;;;5.37;74.89;99502.84;220850;1274;22631;-72
2022/04/28 05:31:02;;;;;;;24.30;18.00;;;;;;;5.62;74.32;99507.05;221038;1274;22546;-72
2022/04/28 05:36:34;;;;;;;28.00;18.40;;;;;;;5.87;74.11;99514.09;221316;1274;22580;-72
2022/04/28 05:41:57;;;;;;;24.60;17.40;;;;;;;6.11;73.82;99521.64;221218;1273;22615;-71
2022/04/28 05:47:03;;;;;;;23.20;17.40;;;;;;;6.28;73.59;99524.12;221276;1274;22534;-72
2022/04/28 05:52:27;;;;;;;29.80;19.90;;;;;;;6.49;73.08;99524.98;226651;1273;22571;-71
2022/04/28 05:57:29;;;;;;;26.30;18.10;;;;;;;6.75;73.45;99526.80;221296;1273;22551;-70
2022/04/28 06:02:33;;;;;;;27.00;18.90;;;;;;;7.04;72.78;99524.58;222277;1272;25476;-71
2022/04/28 06:07:40;;;;;;;26.30;18.50;;;;;;;7.34;72.50;99524.11;221937;1274;23399;-71
2022/04/28 06:12:43;;;;;;;26.20;18.40;;;;;;;7.65;72.42;99527.87;222051;1273;24205;-72
2022/04/28 06:18:06;;;;;;;25.40;19.10;;;;;;;7.96;71.96;99531.91;221731;1274;23075;-71
2022/04/28 06:23:11;;;;;;;28.00;18.90;;;;;;;8.20;71.69;99535.39;221863;1274;22540;-71
2022/04/28 06:28:22;;;;;;;26.70;18.30;;;;;;;8.43;71.20;99533.09;227071;1273;23016;-71
2022/04/28 06:33:28;;;;;;;27.10;18.00;;;;;;;8.71;71.02;99536.83;221660;1273;22595;-71
2022/04/28 06:38:38;;;;;;;23.70;17.80;;;;;;;9.06;71.00;99540.77;221511;1274;22477;-71
2022/04/28 06:43:56;;;;;;;23.50;17.70;;;;;;;9.40;70.80;99541.20;221628;1273;25511;-70
2022/04/28 06:49:07;;;;;;;22.10;15.00;;;;;;;9.71;70.48;99547.20;221580;1273;22590;-71
2022/04/28 06:54:38;;;;;;;18.00;12.40;;;;;;;10.05;69.94;99551.81;221615;1274;25312;-71
2022/04/28 06:59:42;;;;;;;17.10;11.60;;;;;;;10.39;68.99;99557.33;221135;1276;24266;-71
2022/04/28 07:04:47;;;;;;;17.90;11.90;;;;;;;10.72;67.77;99556.83;221881;1274;22582;-72
2022/04/28 07:09:53;;;;;;;17.60;12.70;;;;;;;11.03;67.03;99554.48;221720;1274;25396;-72
2022/04/28 07:15:12;;;;;;;14.70;11.10;;;;;;;11.34;66.28;99554.39;223026;1274;22545;-70
2022/04/28 07:21:47;;;;;;;17.30;12.00;;;;;;;11.67;65.27;99562.88;221599;1273;22530;-71
2022/04/28 07:27:20;;;;;;;19.10;10.80;;;;;;;12.03;64.80;99571.14;221638;1274;22548;-71
2022/04/28 07:33:04;;;;;;;13.40;10.70;;;;;;;12.32;63.87;99577.08;221467;1274;22573;-71
2022/04/28 07:38:24;;;;;;;12.20;9.20;;;;;;;12.60;63.13;99574.39;221662;1273;25374;-71
2022/04/28 07:44:17;;;;;;;;;;;;;;;12.89;61.79;99575.53;221728;1274;22518;-72
2022/04/28 07:49:38;;;;;;;9.20;6.40;;;;;;;13.12;60.27;99578.09;226530;1273;22552;-72
2022/04/28 07:55:13;;;;;;;9.70;5.90;;;;;;;13.33;58.80;99582.23;221818;1274;22562;-71
2022/04/28 08:00:30;;;;;;;8.90;5.80;;;;;;;13.53;57.54;99582.29;226193;1273;22572;-72
2022/04/28 08:05:44;;;;;;;5.40;4.80;;;;;;;13.73;56.23;99589.73;221755;1274;23316;-71
2022/04/28 08:10:48;;;;;;;6.20;4.80;;;;;;;13.93;55.18;99590.71;221732;1274;22561;-71
2022/04/28 08:15:51;;;;;;;8.70;5.40;;;;;;;14.13;54.15;99588.44;221633;1273;22581;-71
2022/04/28 08:21:08;;;;;;;7.20;5.50;;;;;;;14.29;53.18;99589.44;221611;1274;22696;-71
2022/04/28 08:26:33;;;;;;;5.50;4.70;;;;;;;14.52;52.77;99587.95;221564;1274;25386;-71
2022/04/28 08:31:43;;;;;;;6.50;4.60;;;;;;;14.75;51.88;99590.46;221583;1274;22666;-71
2022/04/28 08:36:50;;;;;;;5.20;3.90;;;;;;;14.90;50.19;99590.46;222097;1273;22617;-70
2022/04/28 08:42:07;;;;;;;5.00;4.00;;;;;;;15.04;49.65;99589.15;227199;1274;23448;-72
2022/04/28 08:47:41;;;;;;;6.30;4.40;;;;;;;15.22;48.24;99588.33;222264;1274;25251;-71
2022/04/28 08:52:55;;;;;;;7.50;5.80;;;;;;;15.44;48.51;99592.27;221769;1274;22578;-70
2022/04/28 08:58:06;;;;;;;6.80;5.80;;;;;;;15.71;47.99;99598.05;221889;1274;22549;-70
2022/04/28 09:03:15;;;;;;;8.30;6.90;;;;;;;15.89;48.07;99594.66;221558;1274;22579;-71
2022/04/28 09:08:36;;;;;;;8.00;6.70;;;;;;;15.88;47.90;99591.29;221915;1274;24880;-71
2022/04/28 09:14:09;;;;;;;8.50;6.50;;;;;;;15.66;47.82;99592.59;222010;1274;25824;-72
2022/04/28 09:19:25;;;;;;;8.60;6.80;;;;;;;15.58;47.60;99593.40;221737;1274;23605;-71
2022/04/28 09:24:34;;;;;;;7.40;6.60;;;;;;;15.41;47.42;99595.38;221881;1274;22538;-71
2022/04/28 09:29:41;;;;;;;5.90;5.30;;;;;;;15.31;47.74;99588.36;221625;1274;22560;-71
2022/04/28 09:35:04;;;;;;;;;;;;;;;15.35;46.98;99590.57;221576;1276;22629;-71
2022/04/28 09:46:12;;;;;;;5.10;4.60;;;;;;;15.97;46.10;99590.36;221503;1275;25268;-70
2022/04/28 09:51:23;;;;;;;4.50;4.10;;;;;;;16.20;44.76;99591.23;221477;1274;23738;-70
2022/04/28 09:56:39;;;;;;;4.00;3.40;;;;;;;16.26;44.57;99595.08;227347;1273;22444;-70
2022/04/28 10:01:50;;;;;;;3.40;2.60;;;;;;;16.45;43.40;99589.07;224714;1274;22559;-71
2022/04/28 10:06:52;;;;;;;4.20;3.30;;;;;;;16.55;42.05;99589.58;221986;1274;23319;-71
2022/04/28 10:11:59;;;;;;;3.30;2.60;;;;;;;16.61;42.06;99584.46;221280;1277;22574;-70
2022/04/28 10:17:22;;;;;;;3.40;3.00;;;;;;;16.76;40.67;99579.02;221276;1274;22627;-71
2022/04/28 10:22:36;;;;;;;3.90;3.40;;;;;;;16.78;40.20;99582.79;221376;1274;23200;-70
2022/04/28 10:33:44;;;;;;;4.80;4.00;;;;;;;17.23;41.01;99573.95;221052;1274;24347;-69
2022/04/28 10:39:07;;;;;;;4.40;3.70;;;;;;;17.60;40.30;99574.83;221101;1275;22907;-70
2022/04/28 10:44:16;;;;;;;;;;;;;;;17.71;39.89;99572.60;221021;1277;22565;-70
2022/04/28 10:49:25;;;;;;;5.50;4.20;;;;;;;17.58;39.60;99577.90;221505;1275;22606;-70
2022/04/28 10:54:46;;;;;;;8.00;4.80;;;;;;;17.41;39.47;99568.90;221101;1277;22562;-71
2022/04/28 10:59:49;;;;;;;5.70;4.50;;;;;;;17.40;40.04;99574.04;221121;1274;22534;-71
2022/04/28 11:04:52;;;;;;;6.70;4.90;;;;;;;17.31;39.54;99576.94;221004;1274;24267;-71
2022/04/28 11:10:00;;;;;;;7.20;6.00;;;;;;;17.14;39.79;99575.39;221290;1275;25324;-70
2022/04/28 11:15:10;;;;;;;8.50;5.90;;;;;;;17.13;40.81;99579.32;220470;1274;22627;-70
2022/04/28 11:20:14;;;;;;;7.60;4.60;;;;;;;17.40;40.91;99577.13;219119;1274;25383;-71
2022/04/28 11:25:24;;;;;;;4.90;4.40;;;;;;;17.74;39.56;99581.41;221500;1274;22536;-72
2022/04/28 11:30:33;;;;;;;7.60;4.30;;;;;;;17.82;39.32;99575.85;221281;1275;22553;-72
2022/04/28 11:35:38;;;;;;;4.60;4.10;;;;;;;17.78;39.34;99585.27;220995;1275;22559;-71
2022/04/28 11:40:44;;;;;;;5.60;4.30;;;;;;;17.77;39.57;99583.58;221145;1274;22568;-71
2022/04/28 11:45:48;;;;;;;5.00;4.00;;;;;;;17.92;39.51;99578.86;224000;1274;23331;-71
2022/04/28 11:50:51;;;;;;;4.10;3.50;;;;;;;18.22;39.31;99579.59;221365;1274;22552;-71
2022/04/28 11:55:53;;;;;;;3.90;3.00;;;;;;;18.36;37.42;99577.92;221220;1274;22558;-71
2022/04/28 12:00:56;;;;;;;4.20;3.00;;;;;;;18.25;37.27;99579.23;221190;1274;25467;-72
2022/04/28 12:06:04;;;;;;;3.00;2.70;;;;;;;18.08;36.72;99573.64;218100;1275;3963417;-71
2022/04/28 12:21:49;;;;;;;4.00;2.90;;;;;;;17.49;37.43;99572.47;219213;1274;22608;-71
2022/04/28 12:26:53;;;;;;;3.60;2.60;;;;;;;17.44;37.56;99567.77;219915;1274;22567;-70
2022/04/28 12:32:19;;;;;;;3.70;3.00;;;;;;;17.51;37.89;99559.48;221201;1273;25260;-70
2022/04/28 12:37:49;;;;;;;2.70;2.30;;;;;;;17.66;37.95;99557.67;221308;1274;22539;-71
2022/04/28 12:42:55;;;;;;;3.40;2.80;;;;;;;17.65;36.87;99558.58;221286;1274;22603;-71
2022/04/28 12:48:07;;;;;;;3.00;2.60;;;;;;;17.58;36.91;99546.80;221273;1274;25320;-70
2022/04/28 12:53:29;;;;;;;3.30;3.00;;;;;;;17.51;36.84;99546.55;221252;1275;25349;-71
2022/04/28 12:58:42;;;;;;;3.30;2.60;;;;;;;17.55;37.33;99552.38;224622;1273;23991;-71
2022/04/28 13:03:57;;;;;;;3.50;2.90;;;;;;;17.30;36.60;99554.80;221934;1273;22578;-71
2022/04/28 13:09:04;;;;;;;3.30;2.90;;;;;;;17.13;36.54;99554.10;221396;1275;24909;-71
2022/04/28 13:14:09;;;;;;;3.50;2.70;;;;;;;17.01;36.71;99554.03;221678;1274;22562;-70
2022/04/28 13:19:18;;;;;;;5.20;3.00;;;;;;;17.06;36.84;99548.79;221472;1274;22537;-71
2022/04/28 13:24:21;;;;;;;6.30;3.10;;;;;;;17.15;36.36;99549.23;221079;1274;22580;-71
2022/04/28 13:29:26;;;;;;;2.90;2.60;;;;;;;17.19;36.47;99544.98;222245;1273;22544;-72
2022/04/28 13:34:34;;;;;;;5.30;2.60;;;;;;;17.26;36.30;99543.01;221452;1274;26277;-71
2022/04/28 13:39:37;;;;;;;2.60;2.20;;;;;;;17.28;36.13;99536.05;221315;1274;22758;-72
2022/04/28 13:45:05;;;;;;;2.70;2.40;;;;;;;17.29;35.87;99532.08;221174;1273;23844;-70
2022/04/28 13:50:12;;;;;;;6.60;2.70;;;;;;;17.28;35.90;99530.99;221338;1274;23823;-71
2022/04/28 13:55:18;;;;;;;3.50;3.10;;;;;;;17.26;36.18;99528.29;221436;1273;27506;-71
2022/04/28 14:00:21;;;;;;;3.10;2.60;;;;;;;17.32;36.84;99529.64;221239;1274;23171;-72
2022/04/28 14:05:26;;;;;;;3.60;2.90;;;;;;;17.37;36.47;99522.36;221586;1273;22690;-71
2022/04/28 14:10:28;;;;;;;4.40;2.50;;;;;;;17.39;36.57;99519.61;221680;1274;25468;-72
2022/04/28 14:15:38;;;;;;;2.90;2.60;;;;;;;17.42;36.45;99517.96;221069;1274;22556;-72
2022/04/28 14:20:47;;;;;;;5.80;2.70;;;;;;;17.42;35.75;99521.82;221256;1273;22590;-71
2022/04/28 14:25:58;;;;;;;2.50;2.30;;;;;;;17.36;36.14;99520.48;221332;1274;24258;-72
2022/04/28 14:31:01;;;;;;;2.50;2.20;;;;;;;17.36;36.10;99522.19;221130;1274;22539;-72
2022/04/28 14:36:30;;;;;;;;;;;;;;;17.37;35.56;99520.43;221195;1274;24676;-72
2022/04/28 14:41:32;;;;;;;2.60;1.90;;;;;;;17.32;35.38;99522.75;221248;1274;22542;-72
2022/04/28 14:46:34;;;;;;;2.10;1.80;;;;;;;17.28;35.33;99518.73;221312;1273;23343;-72
2022/04/28 14:57:04;;;;;;;2.50;2.20;;;;;;;17.23;35.25;99521.88;221311;1274;24656;-71
2022/04/28 15:02:17;;;;;;;2.50;1.80;;;;;;;17.20;35.34;99521.23;221330;1274;23057;-71
2022/04/28 15:07:44;;;;;;;3.20;1.90;;;;;;;17.15;35.00;99524.67;221061;1272;22547;-72
2022/04/28 15:12:54;;;;;;;2.80;2.40;;;;;;;17.10;35.22;99522.38;220971;1274;22814;-72
2022/04/28 15:17:56;;;;;;;3.70;2.20;;;;;;;17.11;35.36;99525.09;221045;1272;25501;-72
2022/04/28 15:23:01;;;;;;;2.80;1.90;;;;;;;17.11;35.31;99526.81;221110;1274;24288;-72
2022/04/28 15:28:03;;;;;;;2.50;1.90;;;;;;;17.05;35.30;99525.05;221130;1274;22841;-71
2022/04/28 15:33:05;;;;;;;1.70;1.60;;;;;;;16.98;35.30;99527.93;220834;1273;25235;-71
2022/04/28 15:38:10;;;;;;;2.30;2.00;;;;;;;16.90;35.28;99528.50;221005;1274;22713;-72
2022/04/28 15:43:12;;;;;;;2.30;2.00;;;;;;;16.84;35.59;99533.35;221123;1274;22737;-72
2022/04/28 15:48:14;;;;;;;2.60;1.90;;;;;;;16.81;36.02;99532.77;221023;1273;22559;-72
2022/04/28 15:53:17;;;;;;;1.90;1.70;;;;;;;16.78;35.92;99532.05;220751;1274;23628;-72
2022/04/28 15:58:23;;;;;;;1.90;1.80;;;;;;;16.71;35.64;99528.00;220716;1274;22582;-72
2022/04/28 16:03:27;;;;;;;1.70;1.50;;;;;;;16.61;35.38;99528.21;220551;1276;22733;-71
2022/04/28 16:08:30;;;;;;;3.10;1.90;;;;;;;16.50;35.26;99529.14;220924;1273;25206;-71
2022/04/28 16:13:33;;;;;;;2.60;2.10;;;;;;;16.41;35.61;99531.25;221060;1274;22535;-72
2022/04/28 16:18:35;;;;;;;2.00;1.70;;;;;;;16.32;35.95;99529.69;221112;1274;22726;-72
2022/04/28 16:23:37;;;;;;;1.90;1.70;;;;;;;16.17;35.73;99534.64;221191;1274;22564;-72
2022/04/28 16:29:01;;;;;;;2.40;2.20;;;;;;;16.01;36.02;99533.98;221143;1274;22551;-72
2022/04/28 16:34:25;;;;;;;3.30;1.80;;;;;;;15.89;36.07;99538.91;221077;1273;25248;-71
2022/04/28 16:39:47;;;;;;;2.20;1.70;;;;;;;15.76;36.63;99542.05;221098;1274;22818;-71
2022/04/28 16:44:50;;;;;;;1.90;1.70;;;;;;;15.70;37.05;99544.20;220674;1276;22548;-71
2022/04/28 16:49:55;;;;;;;2.50;2.30;;;;;;;15.64;37.50;99548.60;220732;1276;22560;-72
2022/04/28 16:55:01;;;;;;;2.40;2.20;;;;;;;15.55;37.80;99553.05;220679;1275;22541;-72
2022/04/28 17:00:06;;;;;;;3.00;2.50;;;;;;;15.44;38.31;99556.36;220533;1274;24306;-72
2022/04/28 17:05:08;;;;;;;6.10;4.40;;;;;;;15.35;38.84;99565.99;220805;1274;22603;-72
2022/04/28 17:10:11;;;;;;;7.80;3.90;;;;;;;15.26;39.01;99561.42;220751;1276;22557;-72
2022/04/28 17:15:14;;;;;;;6.40;3.70;;;;;;;15.15;39.55;99561.84;220584;1276;25399;-72
2022/04/28 17:20:17;;;;;;;4.30;2.20;;;;;;;14.97;39.99;99569.84;221532;1276;25305;-72
2022/04/28 17:25:22;;;;;;;3.30;2.40;;;;;;;14.76;40.40;99573.83;220703;1274;22540;-71
2022/04/28 17:30:28;;;;;;;3.40;2.80;;;;;;;14.52;40.71;99578.95;220526;1274;22776;-73
2022/04/28 17:35:32;;;;;;;3.20;2.90;;;;;;;14.27;41.09;99586.34;220687;1274;22735;-72
2022/04/28 17:40:34;;;;;;;3.90;2.70;;;;;;;14.04;41.62;99589.38;221123;1274;22565;-73
2022/04/28 17:45:36;;;;;;;3.00;2.70;;;;;;;13.81;42.02;99595.17;220649;1274;24787;-72
2022/04/28 17:50:40;;;;;;;4.30;2.90;;;;;;;13.57;42.41;99598.27;220817;1274;22576;-72
2022/04/28 18:01:09;;;;;;;6.50;3.10;;;;;;;13.09;43.25;99608.09;220554;1274;22623;-73
2022/04/28 18:06:12;;;;;;;4.70;3.50;;;;;;;12.85;43.51;99615.02;220834;1275;22561;-72
2022/04/28 18:11:16;;;;;;;3.60;3.00;;;;;;;12.64;43.91;99622.73;221423;1274;24278;-72
2022/04/28 18:16:23;;;;;;;5.20;3.10;;;;;;;12.41;44.08;99632.57;221718;1274;22557;-71
2022/04/28 18:21:26;;;;;;;4.80;3.70;;;;;;;12.15;44.46;99638.38;221434;1273;25447;-73
2022/04/28 18:26:29;;;;;;;6.30;4.00;;;;;;;11.95;44.78;99646.04;221194;1274;22614;-73
2022/04/28 18:31:33;;;;;;;7.10;4.20;;;;;;;11.77;45.16;99652.22;221821;1274;25315;-71
2022/04/28 18:47:18;;;;;;;8.20;4.80;;;;;;;11.33;46.01;99678.20;221213;1273;22553;-72
2022/04/28 18:52:21;;;;;;;6.70;4.20;;;;;;;11.17;46.17;99684.98;220806;1274;24239;-72
2022/04/28 18:57:24;;;;;;;6.10;4.20;;;;;;;11.02;46.49;99686.70;221489;1275;22557;-71
2022/04/28 19:02:27;;;;;;;6.40;3.70;;;;;;;10.89;46.97;99693.30;221448;1275;25891;-72
2022/04/28 19:07:31;;;;;;;8.10;4.70;;;;;;;10.77;47.09;99696.41;221808;1274;23490;-72
2022/04/28 19:12:34;;;;;;;8.70;4.80;;;;;;;10.69;47.29;99708.14;221623;1274;22559;-70
2022/04/28 19:17:38;;;;;;;6.90;4.70;;;;;;;10.62;47.49;99708.23;221330;1274;23077;-72
2022/04/28 19:22:40;;;;;;;7.80;5.30;;;;;;;10.53;47.69;99714.27;221524;1274;23275;-71
2022/04/28 19:27:42;;;;;;;8.40;5.20;;;;;;;10.41;47.84;99712.21;221361;1274;22544;-73
2022/04/28 19:32:45;;;;;;;11.70;5.10;;;;;;;10.27;48.19;99710.09;221430;1274;22870;-72
2022/04/28 19:37:48;;;;;;;7.40;5.00;;;;;;;10.11;48.44;99714.91;221203;1274;22563;-72
2022/04/28 19:42:50;;;;;;;8.60;5.30;;;;;;;9.97;48.74;99720.75;221200;1274;22605;-72
2022/04/28 19:47:52;;;;;;;8.40;5.10;;;;;;;9.85;48.93;99727.80;221169;1274;22538;-73
2022/04/28 19:52:55;;;;;;;8.30;5.50;;;;;;;9.73;49.27;99731.17;220874;1274;26403;-72
2022/04/28 19:58:05;;;;;;;10.30;5.80;;;;;;;9.66;49.54;99727.75;220940;1275;24212;-73
2022/04/28 20:03:14;;;;;;;9.50;5.80;;;;;;;9.56;49.94;99726.73;221091;1275;23263;-71
2022/04/28 20:08:34;;;;;;;10.00;6.10;;;;;;;9.42;50.30;99731.84;221162;1274;25251;-72
2022/04/28 20:13:36;;;;;;;11.40;7.20;;;;;;;9.29;50.70;99733.51;221204;1273;22590;-72
2022/04/28 20:18:39;;;;;;;14.90;7.80;;;;;;;9.18;50.91;99736.73;221418;1274;26423;-72
2022/04/28 20:23:42;;;;;;;13.30;8.30;;;;;;;9.07;51.17;99735.15;221300;1274;23448;-71
2022/04/28 20:28:49;;;;;;;17.60;9.50;;;;;;;8.98;51.45;99740.63;221541;1274;22704;-71
2022/04/28 20:33:52;;;;;;;15.50;9.70;;;;;;;8.92;51.67;99745.13;221320;1274;22551;-72
2022/04/28 20:38:55;;;;;;;16.50;10.30;;;;;;;8.88;51.97;99748.35;221379;1274;25254;-72
2022/04/28 20:43:58;;;;;;;19.00;10.40;;;;;;;8.82;52.10;99751.50;221350;1274;22665;-72
2022/04/28 20:49:00;;;;;;;17.80;10.80;;;;;;;8.77;52.37;99756.36;221204;1274;25919;-72
2022/04/28 20:54:03;;;;;;;17.90;10.50;;;;;;;8.73;52.53;99751.73;221263;1274;22578;-72
2022/04/28 20:59:05;;;;;;;17.70;10.90;;;;;;;8.70;52.62;99749.29;220919;1275;22701;-72
2022/04/28 21:04:09;;;;;;;15.50;8.90;;;;;;;8.67;52.81;99751.77;221134;1274;22556;-73
2022/04/28 21:09:11;;;;;;;10.20;7.10;;;;;;;8.64;52.95;99755.85;221234;1274;24111;-71
2022/04/28 21:14:14;;;;;;;8.60;6.30;;;;;;;8.60;53.10;99759.92;221234;1274;23743;-72
2022/04/28 21:19:21;;;;;;;10.90;6.10;;;;;;;8.54;53.52;99759.12;221104;1273;22641;-72
2022/04/28 21:24:23;;;;;;;8.70;6.20;;;;;;;8.48;53.49;99761.67;221335;1274;22542;-72
2022/04/28 21:29:26;;;;;;;8.70;6.10;;;;;;;8.42;53.83;99764.02;220827;1273;23469;-72
2022/04/28 21:34:30;;;;;;;9.80;6.30;;;;;;;8.33;54.07;99769.05;220940;1273;25265;-72
2022/04/28 21:39:33;;;;;;;12.80;6.40;;;;;;;8.25;53.88;99774.62;221255;1274;23329;-73
2022/04/28 21:44:52;;;;;;;11.10;6.90;;;;;;;8.18;54.32;99771.58;221396;1273;22809;-73
2022/04/28 21:50:15;;;;;;;9.50;6.20;;;;;;;8.09;54.38;99765.13;220588;1276;22568;-72
2022/04/28 21:55:18;;;;;;;9.80;6.30;;;;;;;8.05;54.55;99769.08;221016;1275;24778;-72
2022/04/28 22:00:26;;;;;;;10.00;6.70;;;;;;;8.05;54.84;99773.45;220936;1275;26576;-72
2022/04/28 22:16:16;;;;;;;12.90;8.70;;;;;;;7.73;55.58;99769.55;221097;1275;22565;-71
2022/04/28 22:21:21;;;;;;;17.20;10.10;;;;;;;7.58;55.84;99773.31;221059;1275;22580;-71
2022/04/28 22:26:25;;;;;;;21.80;13.20;;;;;;;7.39;56.61;99779.92;221030;1276;25508;-71
2022/04/28 22:31:29;;;;;;;24.60;13.50;;;;;;;7.21;57.15;99780.52;221367;1276;22738;-72
2022/04/28 22:36:33;;;;;;;23.30;13.50;;;;;;;7.05;57.63;99776.75;221056;1276;22569;-71
2022/04/28 22:41:36;;;;;;;26.70;15.10;;;;;;;6.92;57.61;99776.38;221234;1276;22550;-72
2022/04/28 22:46:39;;;;;;;25.60;14.00;;;;;;;6.81;58.09;99776.91;221060;1276;22617;-72
2022/04/28 22:51:41;;;;;;;26.60;14.40;;;;;;;6.69;58.27;99774.13;220959;1276;22686;-72
2022/04/28 22:56:44;;;;;;;23.30;13.50;;;;;;;6.58;58.61;99770.09;220881;1276;22692;-71
2022/04/28 23:01:46;;;;;;;29.80;15.40;;;;;;;6.46;59.38;99762.79;220980;1275;22811;-71
2022/04/28 23:06:50;;;;;;;22.20;13.60;;;;;;;6.33;59.69;99762.11;221122;1275;22551;-71
2022/04/28 23:11:57;;;;;;;23.70;13.60;;;;;;;6.21;60.16;99758.61;221266;1274;25909;-73
2022/04/28 23:17:02;;;;;;;22.30;13.60;;;;;;;6.09;60.47;99755.73;222820;1274;22480;-72
2022/04/28 23:22:05;;;;;;;22.50;13.10;;;;;;;5.98;61.03;99754.63;221166;1274;23828;-73
2022/04/28 23:27:07;;;;;;;23.10;13.30;;;;;;;5.86;61.23;99751.70;221210;1274;22793;-73
2022/04/28 23:32:09;;;;;;;18.50;11.50;;;;;;;5.78;61.70;99750.67;221084;1274;22605;-73
2022/04/28 23:42:33;;;;;;;20.00;11.50;;;;;;;5.62;62.16;99752.84;221053;1276;22682;-73
2022/04/28 23:47:36;;;;;;;25.20;12.30;;;;;;;5.56;62.71;99759.85;221221;1274;27428;-71
2022/04/28 23:58:03;;;;;;;20.80;12.90;;;;;;;5.33;63.27;99754.71;221020;1275;22546;-72
